createdAt,value
2018-04-22T04:52:01.871Z,18.13
2018-04-22T04:54:33.745Z,18.30
2018-04-22T04:57:05.744Z,17.97
2018-04-22T04:59:37.909Z,16.80
2018-04-22T05:02:09.807Z,17.77
2018-04-22T05:04:41.685Z,16.80
2018-04-22T05:07:13.575Z,16.13
2018-04-22T05:09:46.214Z,15.77
2018-04-22T05:12:18.098Z,15.27
2018-04-22T05:14:49.969Z,15.80
2018-04-22T05:17:22.627Z,14.77
2018-04-22T05:19:54.502Z,16.30
2018-04-22T05:22:27.158Z,13.77
2018-04-22T05:24:59.038Z,15.07
2018-04-22T05:27:30.926Z,14.15
2018-04-22T05:30:02.806Z,14.98
2018-04-22T05:32:34.694Z,14.07
2018-04-22T05:35:06.575Z,14.40
2018-04-22T05:37:38.466Z,14.77
2018-04-22T05:40:10.341Z,14.23
2018-04-22T05:42:42.242Z,14.40
2018-04-22T05:45:14.122Z,12.80
2018-04-22T05:47:46.870Z,13.95
2018-04-22T05:50:18.750Z,14.05
2018-04-22T05:52:50.647Z,13.77
2018-04-22T05:55:22.526Z,13.35
2018-04-22T05:57:54.418Z,12.23
2018-04-22T06:00:26.306Z,12.95
2018-04-22T06:02:58.964Z,13.32
2018-04-22T06:05:30.834Z,14.10
2018-04-22T06:08:02.731Z,12.32
2018-04-22T06:10:34.734Z,14.40
2018-04-22T06:13:06.618Z,12.82
2018-04-22T06:15:38.528Z,12.93
2018-04-22T06:18:10.414Z,13.18
2018-04-22T06:20:42.534Z,12.98
2018-04-22T06:23:14.440Z,13.02
2018-04-22T06:25:46.318Z,13.93
2018-04-22T06:28:18.228Z,13.13
2018-04-22T06:30:50.103Z,13.57
2018-04-22T06:33:21.985Z,12.10
2018-04-22T06:35:54.087Z,10.60
2018-04-22T06:38:26.746Z,11.60
2018-04-22T06:40:58.636Z,12.30
2018-04-22T06:43:30.527Z,11.23
2018-04-22T06:46:02.425Z,10.90
2018-04-22T06:48:34.293Z,11.57
2018-04-22T06:51:06.206Z,11.10
2018-04-22T06:53:38.085Z,11.93
2018-04-22T06:56:09.967Z,11.00
2018-04-22T06:58:41.863Z,12.82
2018-04-22T07:01:13.738Z,12.48
2018-04-22T07:06:34.938Z,12.88
2018-04-22T07:09:07.603Z,11.00
2018-04-22T07:11:39.475Z,11.77
2018-04-22T07:14:12.130Z,11.38
2018-04-22T07:16:44.018Z,11.65
2018-04-22T07:19:16.667Z,10.35
2018-04-22T07:21:48.534Z,10.43
2018-04-22T07:24:20.455Z,10.75
2018-04-22T07:26:52.342Z,11.07
2018-04-22T07:29:24.226Z,9.95
2018-04-22T07:31:56.866Z,8.32
2018-04-22T07:34:28.754Z,8.38
2018-04-22T07:37:00.629Z,10.65
2018-04-22T07:39:33.529Z,9.38
2018-04-22T07:42:05.400Z,10.40
2018-04-22T07:44:37.290Z,9.30
2018-04-22T07:47:09.169Z,9.40
2018-04-22T07:49:41.078Z,8.00
2018-04-22T07:52:12.954Z,9.45
2018-04-22T07:54:44.855Z,11.40
2018-04-22T07:57:16.775Z,10.10
2018-04-22T07:59:48.654Z,9.75
2018-04-22T08:02:20.530Z,7.55
2018-04-22T08:04:52.460Z,8.60
2018-04-22T08:07:24.342Z,10.45
2018-04-22T08:09:56.230Z,10.65
2018-04-22T08:12:28.932Z,10.02
2018-04-22T08:15:01.667Z,10.45
2018-04-22T08:17:33.533Z,9.20
2018-04-22T08:20:05.422Z,9.48
2018-04-22T08:22:38.062Z,9.82
2018-04-22T08:25:09.956Z,10.85
2018-04-22T08:27:42.595Z,10.02
2018-04-22T08:30:14.486Z,10.23
2018-04-22T08:32:46.358Z,9.00
2018-04-22T08:35:19.009Z,9.80
2018-04-22T08:37:50.889Z,10.63
2018-04-22T08:40:23.541Z,9.55
2018-04-22T08:42:55.422Z,8.98
2018-04-22T08:45:28.329Z,8.65
2018-04-22T08:48:00.200Z,8.95
2018-04-22T08:50:32.097Z,10.07
2018-04-22T08:53:04.010Z,8.30
2018-04-22T08:55:36.653Z,8.27
2018-04-22T08:58:08.522Z,7.62
2018-04-22T09:00:40.626Z,7.60
2018-04-22T09:03:12.506Z,7.87
2018-04-22T09:05:44.383Z,7.75
2018-04-22T09:08:16.253Z,6.12
2018-04-22T09:10:48.187Z,6.50
2018-04-22T09:13:20.774Z,7.97
2018-04-22T09:15:52.661Z,7.10
2018-04-22T09:18:24.542Z,7.37
2018-04-22T09:20:57.202Z,9.52
2018-04-22T09:23:29.070Z,7.22
2018-04-22T09:26:01.713Z,7.45
2018-04-22T09:28:33.598Z,6.03
2018-04-22T09:31:05.486Z,6.78
2018-04-22T09:33:37.362Z,7.60
2018-04-22T09:36:09.244Z,6.75
2018-04-22T09:38:41.110Z,6.95
2018-04-22T09:41:13.010Z,7.35
2018-04-22T09:43:45.659Z,6.45
2018-04-22T09:46:17.772Z,7.82
2018-04-22T09:48:49.861Z,7.68
2018-04-22T09:51:21.750Z,6.70
2018-04-22T09:53:53.613Z,5.62
2018-04-22T09:56:25.516Z,6.75
2018-04-22T09:58:58.138Z,5.50
2018-04-22T10:01:30.022Z,5.68
2018-04-22T10:04:02.118Z,4.40
2018-04-22T10:06:34.002Z,4.70
2018-04-22T10:09:05.873Z,4.75
2018-04-22T10:11:37.757Z,5.03
2018-04-22T10:14:09.866Z,3.95
2018-04-22T10:16:41.749Z,4.80
2018-04-22T10:19:13.618Z,4.53
2018-04-22T10:21:45.505Z,8.27
2018-04-22T10:24:17.369Z,7.05
2018-04-22T10:26:49.249Z,5.07
2018-04-22T10:29:21.894Z,6.07
2018-04-22T10:31:53.793Z,5.90
2018-04-22T10:34:26.505Z,5.35
2018-04-22T10:36:59.218Z,5.10
2018-04-22T10:39:31.093Z,4.97
2018-04-22T10:42:03.046Z,5.10
2018-04-22T10:44:34.873Z,5.28
2018-04-22T10:47:06.758Z,5.53
2018-04-22T10:49:38.641Z,5.90
2018-04-22T10:52:10.513Z,4.35
2018-04-22T10:54:43.154Z,4.87
2018-04-22T10:57:15.042Z,5.10
2018-04-22T10:59:47.675Z,4.40
2018-04-22T11:02:19.566Z,4.25
2018-04-22T11:04:51.450Z,4.45
2018-04-22T11:07:24.103Z,4.55
2018-04-22T11:09:55.973Z,4.15
2018-04-22T11:12:27.859Z,4.22
2018-04-22T11:14:59.731Z,4.53
2018-04-22T11:17:31.885Z,4.75
2018-04-22T11:20:03.758Z,5.85
2018-04-22T11:22:35.653Z,4.85
2018-04-22T11:25:07.517Z,4.90
2018-04-22T11:27:39.398Z,4.55
2018-04-22T11:30:11.273Z,5.12
2018-04-22T11:32:43.916Z,5.53
2018-04-22T11:35:15.792Z,4.87
2018-04-22T11:37:47.673Z,5.45
2018-04-22T11:40:20.314Z,5.15
2018-04-22T11:42:52.197Z,5.10
2018-04-22T11:45:24.830Z,5.03
2018-04-22T11:47:56.720Z,5.40
2018-04-22T11:50:28.598Z,4.75
2018-04-22T11:53:01.254Z,5.28
2018-04-22T11:55:33.698Z,4.60
2018-04-22T11:58:05.833Z,4.90
2018-04-22T12:00:37.705Z,4.50
2018-04-22T12:03:09.599Z,4.37
2018-04-22T12:05:41.466Z,4.20
2018-04-22T12:08:13.587Z,5.62
2018-04-22T12:10:45.449Z,4.65
2018-04-22T12:13:17.334Z,4.47
2018-04-22T12:15:49.201Z,4.97
2018-04-22T12:18:21.085Z,4.53
2018-04-22T12:20:52.962Z,4.95
2018-04-22T12:23:25.614Z,5.10
2018-04-22T12:25:57.489Z,4.70
2018-04-22T12:28:29.380Z,4.35
2018-04-22T12:31:01.241Z,4.20
2018-04-22T12:33:33.405Z,4.05
2018-04-22T12:36:05.278Z,3.85
2018-04-22T12:38:37.161Z,3.87
2018-04-22T12:41:09.042Z,4.65
2018-04-22T12:43:40.933Z,4.30
2018-04-22T12:46:13.569Z,3.87
2018-04-22T12:48:45.454Z,3.97
2018-04-22T12:51:17.320Z,4.07
2018-04-22T12:53:50.017Z,4.45
2018-04-22T12:56:21.844Z,4.32
2018-04-22T12:58:53.735Z,3.83
2018-04-22T13:01:26.367Z,4.32
2018-04-22T13:03:58.250Z,4.97
2018-04-22T13:06:30.128Z,4.50
2018-04-22T13:09:02.781Z,5.00
2018-04-22T13:11:34.886Z,5.37
2018-04-22T13:14:06.783Z,4.15
2018-04-22T13:16:38.654Z,5.62
2018-04-22T13:19:10.539Z,7.57
2018-04-22T13:21:42.409Z,10.02
2018-04-22T13:24:15.061Z,7.82
2018-04-22T13:26:46.956Z,7.25
2018-04-22T13:29:19.618Z,7.80
2018-04-22T13:31:51.487Z,7.50
2018-04-22T13:34:23.411Z,7.82
2018-04-22T13:36:56.081Z,6.77
2018-04-22T13:39:27.986Z,7.67
2018-04-22T13:42:00.625Z,6.97
2018-04-22T13:44:33.283Z,6.17
2018-04-22T13:47:05.154Z,6.57
2018-04-22T13:49:37.033Z,7.10
2018-04-22T13:52:08.934Z,6.20
2018-04-22T13:54:41.622Z,6.43
2018-04-22T13:57:13.517Z,7.00
2018-04-22T13:59:45.398Z,8.50
2018-04-22T14:02:17.277Z,9.98
2018-04-22T14:04:49.938Z,10.63
2018-04-22T14:07:21.819Z,9.65
2018-04-22T14:09:54.721Z,10.55
2018-04-22T14:12:26.623Z,9.40
2018-04-22T14:14:58.510Z,7.53
2018-04-22T14:17:30.710Z,10.32
2018-04-22T14:20:02.593Z,10.95
2018-04-22T14:22:34.734Z,9.98
2018-04-22T14:25:06.913Z,9.73
2018-04-22T14:27:39.064Z,9.38
2018-04-22T14:30:10.955Z,8.70
2018-04-22T14:32:42.830Z,9.20
2018-04-22T14:35:15.494Z,8.80
2018-04-22T14:37:47.374Z,9.15
2018-04-22T14:40:19.261Z,9.00
2018-04-22T14:42:51.138Z,12.23
2018-04-22T14:45:35.611Z,13.57
2018-04-22T14:48:07.879Z,13.50
2018-04-22T14:50:39.811Z,14.75
2018-04-22T14:53:11.673Z,13.95
2018-04-22T14:55:44.361Z,13.50
2018-04-22T14:58:16.257Z,13.38
2018-04-22T15:00:48.153Z,14.18
2018-04-22T15:03:20.030Z,15.10
2018-04-22T15:05:53.079Z,13.52
2018-04-22T15:08:25.747Z,11.80
2018-04-22T15:10:57.629Z,12.35
2018-04-22T15:13:29.561Z,11.43
2018-04-22T15:16:02.184Z,12.68
2018-04-22T15:18:34.844Z,11.45
2018-04-22T15:21:06.735Z,11.32
2018-04-22T15:25:00.953Z,15.98
2018-04-22T15:27:32.777Z,20.83
2018-04-22T15:39:43.806Z,14.47
2018-04-22T15:42:15.679Z,16.25
2018-04-22T15:44:48.330Z,13.67
2018-04-22T15:47:20.206Z,17.52
2018-04-22T15:49:52.102Z,16.35
2018-04-22T15:52:23.977Z,14.77
2018-04-22T15:54:55.867Z,11.73
2018-04-22T15:57:27.742Z,13.80
2018-04-22T15:59:59.629Z,13.38
2018-04-22T16:02:32.270Z,13.98
2018-04-22T16:05:04.167Z,12.27
2018-04-22T16:07:36.809Z,11.90
2018-04-22T16:10:08.703Z,11.93
2018-04-22T16:12:41.602Z,13.70
2018-04-22T16:15:13.498Z,13.10
2018-04-22T16:17:45.373Z,13.80
2018-04-22T16:20:17.269Z,11.43
2018-04-22T16:22:49.909Z,8.85
2018-04-22T16:25:22.126Z,7.37
2018-04-22T16:27:54.014Z,6.00
2018-04-22T16:30:25.894Z,5.73
2018-04-22T16:32:57.775Z,5.30
2018-04-22T16:35:29.705Z,6.20
2018-04-22T16:38:02.312Z,6.05
2018-04-22T16:40:34.193Z,6.10
2018-04-22T16:43:07.091Z,6.10
2018-04-22T16:45:38.975Z,6.70
2018-04-22T16:48:11.089Z,7.60
2018-04-22T16:50:42.973Z,8.50
2018-04-22T16:53:14.846Z,11.17
2018-04-22T16:55:46.734Z,14.97
2018-04-22T16:58:18.605Z,9.60
2018-04-22T17:00:50.495Z,9.23
2018-04-22T17:03:22.687Z,12.35
2018-04-22T17:05:54.588Z,7.85
2018-04-22T17:08:26.709Z,8.85
2018-04-22T17:10:58.609Z,7.32
2018-04-22T17:13:30.505Z,6.60
2018-04-22T17:16:03.419Z,6.40
2018-04-22T17:18:35.285Z,7.53
2018-04-22T17:21:07.172Z,6.90
2018-04-22T17:23:39.038Z,6.90
2018-04-22T17:26:10.938Z,6.93
2018-04-22T17:28:43.573Z,6.55
2018-04-22T17:31:15.470Z,8.37
2018-04-22T17:33:48.109Z,8.07
2018-04-22T17:36:20.011Z,8.23
2018-04-22T17:38:52.658Z,8.20
2018-04-22T17:41:24.546Z,7.55
2018-04-22T17:43:57.186Z,7.85
2018-04-22T17:46:29.073Z,8.52
2018-04-22T17:49:00.947Z,8.18
2018-04-22T17:51:33.593Z,8.93
2018-04-22T17:54:05.472Z,8.25
2018-04-22T17:56:37.354Z,8.05
2018-04-22T17:59:10.257Z,8.13
2018-04-22T18:01:42.153Z,8.57
2018-04-22T18:04:14.277Z,9.18
2018-04-22T18:06:46.172Z,8.82
2018-04-22T18:09:18.047Z,10.32
2018-04-22T18:11:49.938Z,10.30
2018-04-22T18:14:22.598Z,9.10
2018-04-22T18:16:54.466Z,9.20
2018-04-22T18:19:26.342Z,8.57
2018-04-22T18:21:58.994Z,8.53
2018-04-22T18:24:30.862Z,8.50
2018-04-22T18:27:02.782Z,9.25
2018-04-22T18:29:34.664Z,9.23
2018-04-22T18:32:06.781Z,9.00
2018-04-22T18:34:38.945Z,8.68
2018-04-22T18:37:10.834Z,9.73
2018-04-22T18:39:43.641Z,9.65
2018-04-22T18:42:15.525Z,9.07
2018-04-22T18:44:47.722Z,8.93
2018-04-22T18:47:19.609Z,9.35
2018-04-22T18:49:51.490Z,8.03
2018-04-22T18:52:23.706Z,9.60
2018-04-22T18:54:55.577Z,10.27
2018-04-22T18:57:27.457Z,10.33
2018-04-22T18:59:59.345Z,10.73
2018-04-22T19:02:31.269Z,10.40
2018-04-22T19:05:03.143Z,10.33
2018-04-22T19:07:35.028Z,10.67
2018-04-22T19:10:06.949Z,10.20
2018-04-22T19:12:38.843Z,10.47
2018-04-22T19:15:10.960Z,11.53
2018-04-22T19:17:42.843Z,10.80
2018-04-22T19:20:14.725Z,10.95
2018-04-22T19:22:46.604Z,9.40
2018-04-22T19:25:18.805Z,10.37
2018-04-22T19:27:50.775Z,9.27
2018-04-22T19:30:22.662Z,9.73
2018-04-22T19:32:54.782Z,10.00
2018-04-22T19:35:27.426Z,9.93
2018-04-22T19:37:59.408Z,9.57
2018-04-22T19:40:32.062Z,9.47
2018-04-22T19:43:04.280Z,9.23
2018-04-22T19:45:36.189Z,8.57
2018-04-22T19:48:08.104Z,7.57
2018-04-22T19:50:40.128Z,7.40
2018-04-22T19:53:12.050Z,11.27
2018-04-22T19:55:43.931Z,13.40
2018-04-22T19:58:15.848Z,14.27
2018-04-22T20:00:48.018Z,18.97
2018-04-22T20:03:20.184Z,11.53
2018-04-22T20:05:52.077Z,9.67
2018-04-22T20:08:24.784Z,9.43
2018-04-22T20:10:56.690Z,8.37
